Time;durP1;ratioP1;P1;durP2;ratioP2;P2;SDS_P1;SDS_P2;PMS_P1;PMS_P2;Temp;Humidity;BMP_temperature;BMP_pressure;BME280_temperature;BME280_humidity;BME280_pressure;Samples;Min_cycle;Max_cycle;Signal;HPM_P1;HPM_P2
2024/02/25 00:09:59;;;;;;;41.20;18.50;;;;;;;5.99;91.98;100020.34;681656;1263;139775;-80
2024/02/25 00:25:06;;;;;;;32.40;17.20;;;;;;;6.03;92.76;100022.61;681495;1265;139536;-79
2024/02/25 00:40:10;;;;;;;75.40;31.90;;;;;;;6.08;92.17;100019.69;681715;1265;139078;-80
2024/02/25 00:55:13;;;;;;;38.10;18.20;;;;;;;5.93;91.65;100014.52;681404;1265;139902;-79
2024/02/25 01:10:17;;;;;;;36.00;17.10;;;;;;;5.89;92.19;100016.30;681564;1267;141588;-79
2024/02/25 01:25:20;;;;;;;44.80;20.80;;;;;;;5.95;92.26;100012.63;681604;1266;139682;-79
2024/02/25 01:40:24;;;;;;;38.40;20.20;;;;;;;5.84;92.65;100013.03;681796;1265;139528;-80
2024/02/25 01:55:31;;;;;;;34.70;15.70;;;;;;;5.63;92.14;100016.29;681526;1265;140907;-80
2024/02/25 02:10:37;;;;;;;31.70;16.60;;;;;;;5.64;93.00;100011.67;681359;1267;139818;-78
2024/02/25 02:25:41;;;;;;;33.70;16.70;;;;;;;5.73;93.37;99999.08;681535;1265;140244;-78
2024/02/25 02:40:48;;;;;;;33.80;18.00;;;;;;;5.77;93.77;100006.77;681545;1264;138555;-79
2024/02/25 02:55:52;;;;;;;36.70;18.80;;;;;;;5.87;94.10;100005.04;681550;1260;139651;-79
2024/02/25 03:10:57;;;;;;;37.40;19.20;;;;;;;5.83;93.99;100008.42;682000;1264;140204;-80
2024/02/25 03:26:00;;;;;;;40.80;20.20;;;;;;;5.73;93.92;100010.72;681617;1265;138769;-80
2024/02/25 03:41:03;;;;;;;34.50;17.50;;;;;;;5.66;93.65;100013.98;681640;1264;139246;-80
2024/02/25 03:56:07;;;;;;;32.50;17.30;;;;;;;5.66;93.24;100013.27;681555;1267;174215;-79
2024/02/25 04:11:11;;;;;;;39.50;19.30;;;;;;;5.68;93.12;100006.89;681757;1263;138829;-79
2024/02/25 04:26:15;;;;;;;33.80;17.90;;;;;;;5.72;92.86;100006.79;681386;1264;140871;-79
2024/02/25 04:41:18;;;;;;;39.00;18.80;;;;;;;5.71;93.03;99982.54;681706;1264;138634;-79
2024/02/25 04:56:22;;;;;;;33.10;17.20;;;;;;;5.83;92.85;99984.98;681344;1264;139308;-80
2024/02/25 05:11:26;;;;;;;30.20;16.10;;;;;;;5.96;92.22;99991.69;681363;1265;138963;-80
2024/02/25 05:26:29;;;;;;;56.40;29.00;;;;;;;5.83;91.68;99993.84;681215;1266;138761;-79
2024/02/25 05:41:33;;;;;;;44.50;27.60;;;;;;;5.54;91.55;99996.45;681576;1264;139386;-79
2024/02/25 05:56:36;;;;;;;51.80;23.40;;;;;;;5.26;92.03;99994.42;681688;1262;138734;-80
2024/02/25 06:11:41;;;;;;;44.30;21.30;;;;;;;5.35;91.88;100010.06;681546;1262;138816;-80
2024/02/25 06:26:45;;;;;;;58.90;27.00;;;;;;;5.43;91.99;100022.70;681405;1262;139632;-80
2024/02/25 06:41:52;;;;;;;271.10;123.80;;;;;;;6.13;93.20;100021.47;681689;1267;138627;-80
2024/02/25 06:56:56;;;;;;;238.80;105.50;;;;;;;6.92;92.66;100010.23;681556;1265;139718;-79
2024/02/25 07:12:00;;;;;;;65.60;35.30;;;;;;;9.06;94.09;100011.62;681623;1262;139090;-80
2024/02/25 07:27:07;;;;;;;60.70;34.20;;;;;;;8.97;88.51;100007.06;681441;1267;139443;-80
2024/02/25 07:42:11;;;;;;;91.20;37.80;;;;;;;7.74;89.94;99996.48;681497;1267;140274;-80
2024/02/25 07:57:16;;;;;;;400.70;186.60;;;;;;;8.23;90.97;99978.41;681754;1262;138677;-79
2024/02/25 08:12:20;;;;;;;65.60;31.90;;;;;;;11.35;91.89;99952.55;681480;1265;140107;-80
2024/02/25 08:27:29;;;;;;;31.60;20.80;;;;;;;14.76;81.47;99946.87;681714;1267;138424;-79
2024/02/25 08:42:33;;;;;;;241.90;121.80;;;;;;;14.85;73.56;99942.39;681675;1265;141184;-80
2024/02/25 08:57:37;;;;;;;130.30;49.40;;;;;;;14.69;73.97;99912.05;681766;1267;139093;-82
2024/02/25 09:12:45;;;;;;;63.40;23.20;;;;;;;14.23;71.88;99910.97;681525;1266;140227;-80
2024/02/25 09:27:49;;;;;;;106.30;40.30;;;;;;;13.22;69.13;99919.56;681696;1277;139354;-80
2024/02/25 09:42:53;;;;;;;158.80;58.20;;;;;;;13.73;71.59;99893.29;681632;1262;139311;-79
2024/02/25 09:57:57;;;;;;;56.30;31.00;;;;;;;14.62;71.74;99880.45;681803;1265;139302;-80
2024/02/25 10:13:03;;;;;;;115.20;47.20;;;;;;;15.48;69.77;99863.10;681580;1261;140046;-79
2024/02/25 10:28:17;;;;;;;255.70;118.50;;;;;;;15.91;67.90;99826.15;681696;1265;139097;-78
2024/02/25 10:43:25;;;;;;;47.60;22.40;;;;;;;15.74;67.03;99791.69;681648;1261;139477;-79
2024/02/25 10:58:30;;;;;;;40.20;22.40;;;;;;;16.03;66.24;99776.85;681718;1265;140107;-79
2024/02/25 11:13:41;;;;;;;144.50;44.30;;;;;;;15.76;65.35;99760.69;681545;1262;139769;-79
2024/02/25 11:29:18;;;;;;;53.50;26.20;;;;;;;16.22;65.08;99749.31;681619;1262;139398;-79
2024/02/25 11:44:27;;;;;;;33.70;17.80;;;;;;;15.88;64.30;99733.11;681585;1262;139132;-79
2024/02/25 11:59:32;;;;;;;;;;;;;;;15.56;64.72;99718.71;681551;1261;140228;-79
2024/02/25 12:14:38;;;;;;;12.90;9.60;;;;;;;15.06;64.75;99709.34;681652;1262;124301;-80
2024/02/25 12:29:42;;;;;;;14.60;9.60;;;;;;;14.69;64.80;99701.68;681687;1262;138677;-82
2024/02/25 12:44:46;;;;;;;14.00;8.90;;;;;;;14.82;65.87;99679.52;681679;1260;139658;-81
2024/02/25 12:59:49;;;;;;;33.60;16.60;;;;;;;14.85;66.39;99665.77;681867;1264;138772;-80
2024/02/25 13:14:54;;;;;;;50.80;25.90;;;;;;;14.46;67.50;99653.31;682050;1262;139598;-82
2024/02/25 13:29:58;;;;;;;35.00;16.60;;;;;;;14.41;68.50;99637.42;681674;1263;138933;-80
2024/02/25 13:45:06;;;;;;;29.30;13.30;;;;;;;14.57;69.56;99626.41;681726;1267;140628;-80
2024/02/25 14:00:11;;;;;;;20.50;11.40;;;;;;;14.67;70.38;99612.63;681644;1265;139911;-81
2024/02/25 14:15:17;;;;;;;112.90;49.00;;;;;;;14.39;70.97;99609.30;681818;1265;139743;-80
2024/02/25 14:30:21;;;;;;;31.00;17.40;;;;;;;14.29;71.98;99601.41;681626;1265;139436;-80
2024/02/25 14:45:25;;;;;;;19.10;12.10;;;;;;;14.04;73.44;99595.36;681718;1262;138873;-80
2024/02/25 15:00:30;;;;;;;24.60;12.50;;;;;;;13.88;74.49;99588.21;681664;1265;140809;-81
2024/02/25 15:15:34;;;;;;;51.80;22.90;;;;;;;13.74;75.54;99577.60;681747;1265;139859;-81
2024/02/25 15:30:42;;;;;;;19.90;15.10;;;;;;;13.52;75.99;99570.80;681714;1262;140159;-80
2024/02/25 15:45:48;;;;;;;68.70;30.10;;;;;;;13.18;77.00;99567.23;681301;1266;312338;-79
2024/02/25 16:00:52;;;;;;;29.90;18.70;;;;;;;12.87;77.79;99557.44;681699;1263;139247;-79
2024/02/25 16:15:57;;;;;;;259.20;135.00;;;;;;;12.45;78.76;99547.57;681475;1267;139109;-79
2024/02/25 16:31:03;;;;;;;176.50;71.80;;;;;;;12.13;79.63;99532.08;681575;1265;140975;-79
2024/02/25 16:46:07;;;;;;;115.70;51.60;;;;;;;11.98;80.61;99525.27;681616;1266;139843;-79
2024/02/25 17:01:15;;;;;;;112.10;56.00;;;;;;;11.58;81.31;99527.17;681743;1265;139539;-79
2024/02/25 17:16:19;;;;;;;53.60;20.40;;;;;;;11.36;83.14;99532.02;681535;1263;139862;-79
2024/02/25 17:31:23;;;;;;;79.50;30.60;;;;;;;11.38;85.97;99515.68;681497;1265;138807;-79
2024/02/25 17:46:27;;;;;;;64.70;25.80;;;;;;;11.25;85.93;99505.64;681404;1267;141283;-80
2024/02/25 18:01:33;;;;;;;127.80;41.50;;;;;;;11.06;86.47;99510.72;681610;1265;139522;-80
2024/02/25 18:16:42;;;;;;;32.80;13.50;;;;;;;11.15;86.03;99474.48;681402;1265;139873;-81
2024/02/25 18:31:48;;;;;;;28.60;12.40;;;;;;;10.95;86.82;99462.73;681461;1265;139137;-80
2024/02/25 18:46:52;;;;;;;29.60;12.20;;;;;;;10.87;86.02;99466.18;681402;1266;139268;-80
2024/02/25 19:01:55;;;;;;;155.60;53.00;;;;;;;10.82;85.82;99459.14;681520;1263;140414;-80
2024/02/25 19:16:58;;;;;;;46.40;19.40;;;;;;;10.70;85.83;99455.08;681348;1265;140177;-80
2024/02/25 19:32:02;;;;;;;40.10;18.30;;;;;;;10.66;86.84;99454.75;681533;1279;138894;-80
2024/02/25 19:47:06;;;;;;;35.60;17.60;;;;;;;10.55;87.52;99438.97;681412;1266;139143;-79
2024/02/25 20:02:12;;;;;;;34.30;15.40;;;;;;;10.37;88.42;99430.96;681337;1274;138784;-80
2024/02/25 20:17:16;;;;;;;33.30;18.60;;;;;;;10.33;88.96;99426.95;681469;1261;138778;-79
2024/02/25 20:32:20;;;;;;;149.00;71.50;;;;;;;10.36;89.68;99438.59;681668;1264;138710;-80
2024/02/25 20:47:28;;;;;;;29.70;15.60;;;;;;;10.28;89.73;99442.45;681268;1267;139487;-78
2024/02/25 21:02:33;;;;;;;26.20;12.80;;;;;;;10.09;89.39;99444.42;681346;1267;139113;-79
2024/02/25 21:17:37;;;;;;;30.80;13.40;;;;;;;9.93;89.82;99438.23;681463;1264;139370;-79
2024/02/25 21:32:41;;;;;;;29.50;12.90;;;;;;;10.06;90.72;99434.86;681616;1267;138532;-79
2024/02/25 21:47:45;;;;;;;33.40;15.50;;;;;;;10.20;89.37;99430.92;681263;1264;139855;-78
2024/02/25 22:02:53;;;;;;;56.60;23.00;;;;;;;10.02;89.01;99434.54;681670;1265;139833;-79
2024/02/25 22:17:56;;;;;;;32.40;14.40;;;;;;;9.70;88.47;99435.77;681480;1267;139525;-79
2024/02/25 22:33:00;;;;;;;26.80;12.50;;;;;;;9.29;88.03;99438.47;681403;1274;140141;-79
2024/02/25 22:48:04;;;;;;;46.90;20.80;;;;;;;8.93;87.89;99436.16;681279;1262;139877;-79
2024/02/25 23:03:08;;;;;;;29.20;15.30;;;;;;;8.60;88.00;99439.27;681453;1262;138752;-79
2024/02/25 23:18:11;;;;;;;38.50;18.00;;;;;;;8.16;88.30;99453.71;681408;1262;139671;-80
2024/02/25 23:33:16;;;;;;;57.50;20.70;;;;;;;7.67;89.08;99455.77;681363;1262;139722;-78
2024/02/25 23:48:19;;;;;;;43.70;19.10;;;;;;;7.34;89.13;99456.06;681157;1262;138989;-78
